createdAt,value
2019-05-20T13:46:31.944Z,53.05
2019-05-20T13:49:03.068Z,51.90
2019-05-20T13:51:33.644Z,52.36
2019-05-20T13:54:04.232Z,53.37
2019-05-20T13:56:34.807Z,52.60
2019-05-20T13:59:05.640Z,52.82
2019-05-20T14:01:36.182Z,54.70
2019-05-20T14:04:06.890Z,53.49
2019-05-20T14:06:37.704Z,52.63
2019-05-20T14:09:08.463Z,52.15
2019-05-20T14:11:39.241Z,51.55
2019-05-20T14:14:13.837Z,50.08
2019-05-20T14:16:44.153Z,50.65
2019-05-20T14:19:14.728Z,51.57
2019-05-20T14:21:45.355Z,49.86
2019-05-20T14:24:17.134Z,51.35
2019-05-20T14:26:47.777Z,52.36
2019-05-20T14:29:18.650Z,52.97
2019-05-20T14:31:49.590Z,52.94
2019-05-20T14:34:20.203Z,50.92
2019-05-20T14:36:53.037Z,52.46
2019-05-20T14:39:23.819Z,51.14
2019-05-20T14:41:54.552Z,51.38
2019-05-20T14:44:25.170Z,51.76
2019-05-20T14:46:56.682Z,51.59
2019-05-20T14:49:27.327Z,52.08
2019-05-20T14:51:58.426Z,52.89
2019-05-20T14:54:29.445Z,52.80
2019-05-20T14:57:00.186Z,53.38
2019-05-20T14:59:32.560Z,51.28
2019-05-20T15:02:04.331Z,51.94
2019-05-20T15:04:35.796Z,50.50
2019-05-20T15:07:06.395Z,50.70
2019-05-20T15:09:36.995Z,49.55
2019-05-20T15:12:07.711Z,49.55
2019-05-20T15:14:38.724Z,49.52
2019-05-20T15:17:09.705Z,51.04
2019-05-20T15:19:40.432Z,51.31
2019-05-20T15:22:12.091Z,51.20
2019-05-20T15:24:42.848Z,49.41
2019-05-20T15:27:15.439Z,50.89
2019-05-20T15:29:46.150Z,50.88
2019-05-20T15:32:16.923Z,50.76
2019-05-20T15:34:49.085Z,49.38
2019-05-20T15:37:19.988Z,49.03
2019-05-20T15:39:51.096Z,48.22
2019-05-20T15:42:21.988Z,49.14
2019-05-20T15:44:52.792Z,50.03
2019-05-20T15:47:23.447Z,49.92
2019-05-20T15:49:54.026Z,50.52
2019-05-20T15:52:25.166Z,50.34
2019-05-20T15:54:55.913Z,49.19
2019-05-20T15:57:27.553Z,49.24
2019-05-20T15:59:59.209Z,48.54
2019-05-20T16:02:29.974Z,49.62
2019-05-20T16:05:00.626Z,49.91
2019-05-20T16:07:31.675Z,48.56
2019-05-20T16:10:02.828Z,48.47
2019-05-20T16:12:34.461Z,48.77
2019-05-20T16:15:07.241Z,47.00
2019-05-20T16:17:38.627Z,46.94
2019-05-20T16:20:10.960Z,47.51
2019-05-20T16:22:42.740Z,47.40
2019-05-20T16:25:15.207Z,47.69
2019-05-20T16:27:46.053Z,46.18
2019-05-20T16:30:19.080Z,46.88
2019-05-20T16:32:50.725Z,46.49
2019-05-20T16:35:22.017Z,47.47
2019-05-20T16:37:53.087Z,47.85
2019-05-20T16:40:24.012Z,48.29
2019-05-20T16:42:54.782Z,49.17
2019-05-20T16:45:25.666Z,47.73
2019-05-20T16:47:56.402Z,48.64
2019-05-20T16:50:28.598Z,49.34
2019-05-20T16:52:59.414Z,48.21
2019-05-20T16:55:30.189Z,48.44
2019-05-20T16:58:00.951Z,48.60
2019-05-20T17:00:32.573Z,47.47
2019-05-20T17:03:03.325Z,48.98
2019-05-20T17:05:34.072Z,48.77
2019-05-20T17:08:04.798Z,48.96
2019-05-20T17:10:35.950Z,48.94
2019-05-20T17:13:06.599Z,48.13
2019-05-20T17:15:37.241Z,47.14
2019-05-20T17:18:07.897Z,49.11
2019-05-20T17:20:39.744Z,47.86
2019-05-20T17:23:12.585Z,48.16
2019-05-20T17:25:44.376Z,48.35
2019-05-20T17:28:15.005Z,46.70
2019-05-20T17:30:46.159Z,47.43
2019-05-20T17:33:17.112Z,47.31
2019-05-20T17:35:48.179Z,47.91
2019-05-20T17:38:18.848Z,47.88
2019-05-20T17:40:49.689Z,49.30
2019-05-20T17:43:21.808Z,49.41
2019-05-20T17:45:52.562Z,50.41
2019-05-20T17:48:23.636Z,51.29
2019-05-20T17:50:54.666Z,51.49
2019-05-20T17:53:26.082Z,51.03
2019-05-20T17:55:57.349Z,52.21
2019-05-20T17:58:29.255Z,52.86
2019-05-20T18:01:14.844Z,52.21
2019-05-20T18:03:35.728Z,52.89
2019-05-20T18:06:06.718Z,52.81
2019-05-20T18:08:40.617Z,53.08
2019-05-20T18:11:12.129Z,53.81
2019-05-20T18:13:42.871Z,54.46
2019-05-20T18:16:13.448Z,54.67
2019-05-20T18:18:44.352Z,54.94
2019-05-20T18:21:14.971Z,55.40
2019-05-20T18:23:45.514Z,55.42
2019-05-20T18:26:16.179Z,56.53
2019-05-20T18:28:46.791Z,57.34
2019-05-20T18:31:31.191Z,57.29
2019-05-20T18:33:50.499Z,57.96
2019-05-20T18:36:21.126Z,58.55
2019-05-20T18:38:52.228Z,58.89
2019-05-20T18:41:23.278Z,59.37
2019-05-20T18:43:54.080Z,60.06
2019-05-20T18:46:24.779Z,60.28
2019-05-20T18:48:55.862Z,60.62
2019-05-20T18:51:26.477Z,60.32
2019-05-20T18:53:57.013Z,60.79
2019-05-20T18:56:27.874Z,60.58
2019-05-20T18:58:58.490Z,61.09
2019-05-20T19:01:30.206Z,60.64
2019-05-20T19:04:01.140Z,60.36
2019-05-20T19:06:33.065Z,60.45
2019-05-20T19:09:05.166Z,61.22
2019-05-20T19:11:36.076Z,62.28
2019-05-20T19:14:08.394Z,62.26
2019-05-20T19:16:39.820Z,62.36
2019-05-20T19:19:11.867Z,63.20
2019-05-20T19:21:43.795Z,64.60
2019-05-20T19:24:14.352Z,65.42
2019-05-20T19:26:46.526Z,66.48
2019-05-20T19:29:19.065Z,66.76
2019-05-20T19:32:01.352Z,66.73
2019-05-20T19:34:23.360Z,67.91
2019-05-20T19:36:54.654Z,69.64
2019-05-20T19:39:25.703Z,69.73
2019-05-20T19:41:56.689Z,73.42
2019-05-20T19:44:27.401Z,74.96
2019-05-20T19:46:59.405Z,75.03
2019-05-20T19:49:30.288Z,76.36
2019-05-20T19:52:01.427Z,77.35
2019-05-20T19:54:32.589Z,77.65
2019-05-20T19:57:03.291Z,77.78
2019-05-20T19:59:34.276Z,77.73
2019-05-20T20:02:17.021Z,77.47
2019-05-20T20:04:38.318Z,77.58
2019-05-20T20:07:10.102Z,77.60
2019-05-20T20:09:40.972Z,77.45
2019-05-20T20:12:11.650Z,77.45
2019-05-20T20:14:45.501Z,77.82
2019-05-20T20:17:16.393Z,77.68
2019-05-20T20:19:47.218Z,78.95
2019-05-20T20:22:18.300Z,79.26
2019-05-20T20:24:50.513Z,79.62
2019-05-20T20:27:21.903Z,79.98
2019-05-20T20:29:53.282Z,80.07
2019-05-20T20:32:37.361Z,79.27
2019-05-20T20:34:56.838Z,79.46
2019-05-20T20:37:28.388Z,79.33
2019-05-20T20:39:59.606Z,80.70
2019-05-20T20:42:32.854Z,80.44
2019-05-20T20:45:04.422Z,80.21
2019-05-20T20:47:41.774Z,80.21
2019-05-20T20:50:09.701Z,80.23
2019-05-20T20:52:41.972Z,80.27
2019-05-20T20:55:13.705Z,80.27
2019-05-20T20:57:45.718Z,80.27
2019-05-20T21:00:17.111Z,80.18
2019-05-20T21:02:53.215Z,80.18
2019-05-20T21:05:20.793Z,81.08
2019-05-20T21:07:51.860Z,81.25
2019-05-20T21:10:22.678Z,81.25
2019-05-20T21:12:53.559Z,81.85
2019-05-20T21:15:24.433Z,81.85
2019-05-20T21:17:56.909Z,81.96
2019-05-20T21:20:27.902Z,81.30
2019-05-20T21:23:00.479Z,81.03
2019-05-20T21:25:33.810Z,80.19
2019-05-20T21:28:04.782Z,79.50
2019-05-20T21:30:35.735Z,80.03
2019-05-20T21:33:09.618Z,79.81
2019-05-20T21:35:38.942Z,80.33
2019-05-20T21:38:09.492Z,80.91
2019-05-20T21:40:40.321Z,81.26
2019-05-20T21:43:11.180Z,81.26
2019-05-20T21:45:43.990Z,81.35
2019-05-20T21:48:14.779Z,82.24
2019-05-20T21:50:45.481Z,82.24
2019-05-20T21:53:16.142Z,84.67
2019-05-20T21:55:46.824Z,86.45
2019-05-20T21:58:17.430Z,86.45
2019-05-20T22:00:50.024Z,87.01
2019-05-20T22:03:24.820Z,87.44
2019-05-20T22:05:55.573Z,87.71
2019-05-20T22:08:26.569Z,86.82
2019-05-20T22:10:57.285Z,86.58
2019-05-20T22:13:27.978Z,87.83
2019-05-20T22:15:58.831Z,88.81
2019-05-20T22:18:29.753Z,89.10
2019-05-20T22:21:00.494Z,88.96
2019-05-20T22:23:38.975Z,89.05
2019-05-20T22:26:10.127Z,88.86
2019-05-20T22:28:40.816Z,88.61
2019-05-20T22:31:11.637Z,88.67
2019-05-20T22:33:42.772Z,88.59
2019-05-20T22:36:14.882Z,88.29
2019-05-20T22:38:45.753Z,88.39
2019-05-20T22:41:16.367Z,88.45
2019-05-20T22:43:47.455Z,88.09
2019-05-20T22:46:18.419Z,88.18
2019-05-20T22:48:50.161Z,88.44
2019-05-20T22:51:21.027Z,89.54
2019-05-20T22:53:52.251Z,91.15
2019-05-20T22:56:23.209Z,91.59
2019-05-20T22:58:54.335Z,91.58
2019-05-20T23:01:25.692Z,91.26
2019-05-20T23:03:57.483Z,90.91
2019-05-20T23:06:28.373Z,92.34
2019-05-20T23:08:59.400Z,92.20
2019-05-20T23:11:30.609Z,90.41
2019-05-20T23:14:01.497Z,89.11
2019-05-20T23:16:32.382Z,87.60
2019-05-20T23:19:03.270Z,86.43
2019-05-20T23:21:34.192Z,86.02
2019-05-20T23:24:05.450Z,85.54
2019-05-20T23:26:36.606Z,85.71
2019-05-20T23:29:07.688Z,85.75
2019-05-20T23:31:38.573Z,86.25
2019-05-20T23:34:12.577Z,86.80
2019-05-20T23:36:42.443Z,85.53
2019-05-20T23:39:13.279Z,85.76
2019-05-20T23:41:44.445Z,88.41
2019-05-20T23:44:15.654Z,87.77
2019-05-20T23:46:46.649Z,87.68
2019-05-20T23:49:17.959Z,88.92
2019-05-20T23:51:49.141Z,86.96
2019-05-20T23:54:20.357Z,88.48
2019-05-20T23:56:51.309Z,89.09
2019-05-20T23:59:21.896Z,90.65
